NZTE weather

Te Kowhai Airfield
Waikato Region, New Zealand

Public forecast

Using degrees Celsius for public forecast. Weather courtesy of forecast.io.

METAR (pilot weather report)

Closest report is Auckland International Airport, 47.6 nm (88.1 km) NNW. Retrieved 2019/07/19 16:30 UTC (0 seconds ago):

NZAA 191630Z AUTO 31005KT 9999 VCSH FEW032/// SCT070/// 11/10 Q1002 TEMPO 5000 SHRA FEW020CB

TAF (pilot weather forecast)

Closest forecast is Auckland International Airport, 47.6 nm (88.1 km) NNW. Retrieved 2019/07/19 12:14 UTC (4 hours ago):

TAF NZAA 191108Z 1912/2012 27012KT 9999 -SHRA SCT030 BKN050 TEMPO 1912/2003 5000 SHRA FEW020TCU BECMG 1918/1920 27015G25KT FM200300 27012KT 9999 -SHRA FEW030 SCT050 TEMPO 2003/2008 6000 SHRA BECMG 2008/2010 VRB02KT